• Join FlightAware (Why Join?)
  • Login
  • US Flag 
07:26AM EDT


 

Airport Tracker/Info


-or-


 

Live Flight TrackerFlight Track Log ✈ WBR2628 ✈ 01-May-2013 ✈ KSTL - KBRL

Flight Track Log - Related Links

Times and Time Zones

All times are in EDT time to prevent confusion due to time zone crossing. See the WBR2628 flight status page for this flight to view local times or setup timezone preferences in your user account.

Time Position Orientation Groundspeed Altitude Reporting Facility
EDT Latitude Longitude Course Direction KTS MPH feet Rate Location/Type
01:09PM 38.7333 -90.3333 57° Northeast 95 109 1,100  Level Gateway (St. Louis) TRACON
01:10PM 38.7500 -90.3000 57° Northeast 106 122 1,800 840 Climbing Gateway (St. Louis) TRACON
01:11PM 38.7833 -90.3000 360° North 112 129 2,700 960 Climbing Gateway (St. Louis) TRACON
01:12PM 38.7925 -90.3025 348° North 111 128 3,300 900 Climbing Kansas City Center
01:13PM 38.8244 -90.3075 353° North 114 131 4,100 720 Climbing Kansas City Center
01:14PM 38.8567 -90.3106 356° North 115 132 4,900 780 Climbing Kansas City Center
01:15PM 38.8917 -90.3094 North 119 137 5,800 720 Climbing Kansas City Center
01:16PM 38.9253 -90.3228 343° North 124 143 6,500 720 Climbing Kansas City Center
01:17PM 38.9603 -90.3403 339° North 133 153 7,300 720 Climbing Kansas City Center
01:18PM 39.0033 -90.3614 339° North 137 158 8,000 660 Climbing Kansas City Center
01:19PM 39.0422 -90.3808 339° North 144 166 8,700 660 Climbing Kansas City Center
01:20PM 39.0794 -90.4014 337° Northwest 146 168 9,400 540 Climbing Kansas City Center
01:21PM 39.1178 -90.4206 339° North 146 168 9,900 240 Climbing Kansas City Center
01:22PM 39.1597 -90.4414 339° North 153 176 10,000  Climbing Kansas City Center
01:23PM 39.2150 -90.4708 338° Northwest 169 194 9,900 -60 Descending Kansas City Center
01:24PM 39.2600 -90.4922 340° North 173 199 9,900  Level Kansas City Center
01:25PM 39.3028 -90.5133 339° North 168 193 10,000  Climbing Kansas City Center
01:26PM 39.3456 -90.5314 342° North 164 189 10,000  Level Kansas City Center
01:27PM 39.3886 -90.5522 339° North 164 189 10,000  Level Kansas City Center
01:28PM 39.4319 -90.5733 339° North 166 191 10,000  Level Kansas City Center
01:29PM 39.4867 -90.5853 350° North 168 193 10,000  Level Kansas City Center
01:30PM 39.5331 -90.5908 355° North 168 193 10,000  Level Kansas City Center
01:31PM 39.5794 -90.5978 353° North 167 192 10,000  Level Kansas City Center
01:32PM 39.6258 -90.6058 352° North 169 194 10,000  Level Kansas City Center
01:33PM 39.6714 -90.6128 353° North 167 192 10,000  Level Kansas City Center
01:34PM 39.7169 -90.6211 352° North 166 191 10,000  Level Kansas City Center
01:35PM 39.7644 -90.6283 353° North 166 191 10,000  Level Kansas City Center
01:36PM 39.8189 -90.6364 354° North 165 190 10,000  Level Kansas City Center
01:38PM 39.8633 -90.6478 349° North 163 188 10,000  Level Kansas City Center
01:39PM 39.9050 -90.6714 337° Northwest 163 188 10,000  Level Kansas City Center
01:40PM 39.9464 -90.6933 338° Northwest 161 185 10,000  Level Kansas City Center
01:41PM 39.9872 -90.7142 339° North 158 182 10,000  Level Kansas City Center
01:42PM 40.0283 -90.7358 338° Northwest 159 183 10,000  Level Kansas City Center
01:43PM 40.0711 -90.7567 340° North 162 186 10,000  Level Kansas City Center
01:44PM 40.1233 -90.7839 338° Northwest 165 190 10,000  Level Kansas City Center
01:44PM 40.1419 -90.7936 338° Northwest 165 190 10,000 -180 Level Chicago Center
01:45PM 40.1817 -90.8150 338° Northwest 159 183 9,800 -300 Descending Chicago Center
01:46PM 40.2231 -90.8356 339° North 162 186 9,500 -300 Descending Chicago Center
01:47PM 40.2656 -90.8575 338° Northwest 164 189 9,200 -480 Descending Chicago Center
01:48PM 40.3150 -90.8853 337° Northwest 160 184 8,600 -540 Descending Chicago Center
01:49PM 40.3319 -90.8944 338° Northwest 161 185 8,400 -540 Descending Kansas City Center
01:50PM 40.3733 -90.9161 338° Northwest 162 186 7,800 -540 Descending Kansas City Center
01:50PM 40.3986 -90.9289 339° North 161 185 7,600 -480 Descending Chicago Center
01:51PM 40.4408 -90.9494 340° North 161 185 7,100 -540 Descending Chicago Center
01:52PM 40.4822 -90.9725 337° Northwest 160 184 6,600 -480 Descending Chicago Center
01:53PM 40.5247 -90.9917 341° North 160 184 6,200 -540 Descending Chicago Center
01:55PM 40.5636 -91.0122 338° Northwest 156 180 5,600 -540 Descending Chicago Center
01:56PM 40.6108 -91.0400 336° Northwest 154 177 5,100 -540 Descending Chicago Center
01:57PM 40.6492 -91.0675 331° Northwest 156 180 4,500 -540 Descending Chicago Center
01:58PM 40.6856 -91.0964 329° Northwest 155 178 4,100 -660 Descending Chicago Center
01:59PM 40.7189 -91.1294 323° Northwest 152 175 3,200 -780 Descending Chicago Center
02:00PM 40.7547 -91.1619 326° Northwest 153 176 2,600 -600 Descending Chicago Center
02:02PM 40.7667 -91.1167 339° North  Level FlightAware Approximate